createdAt,value
2023-02-26T00:01:19.433Z,78.34
2023-02-26T00:03:52.688Z,78.25
2023-02-26T00:06:19.643Z,78.59
2023-02-26T00:08:46.172Z,78.31
2023-02-26T00:11:12.961Z,78.25
2023-02-26T00:13:40.929Z,78.21
2023-02-26T00:16:21.695Z,78.03
2023-02-26T00:18:48.409Z,78.11
2023-02-26T00:21:20.178Z,77.76
2023-02-26T00:23:46.797Z,78.25
2023-02-26T00:26:13.257Z,78.06
2023-02-26T00:28:39.840Z,77.78
2023-02-26T00:31:06.798Z,77.71
2023-02-26T00:33:33.520Z,78.07
2023-02-26T00:36:19.804Z,77.85
2023-02-26T00:39:01.260Z,78.17
2023-02-26T00:41:28.804Z,78.13
2023-02-26T00:43:55.414Z,78.42
2023-02-26T00:46:28.227Z,78.26
2023-02-26T00:49:16.966Z,78.46
2023-02-26T00:51:53.864Z,78.51
2023-02-26T00:54:22.685Z,78.33
2023-02-26T00:56:50.400Z,78.41
2023-02-26T00:59:17.919Z,78.35
2023-02-26T01:01:45.167Z,78.62
2023-02-26T01:04:13.109Z,78.94
2023-02-26T01:06:47.488Z,79.17
2023-02-26T01:09:33.990Z,78.81
2023-02-26T01:12:12.941Z,79.40
2023-02-26T01:14:40.241Z,79.23
2023-02-26T01:17:15.313Z,79.04
2023-02-26T01:20:06.756Z,79.51
2023-02-26T01:22:43.411Z,79.65
2023-02-26T01:25:16.724Z,79.74
2023-02-26T01:27:43.422Z,79.86
2023-02-26T01:30:10.369Z,79.98
2023-02-26T01:32:45.208Z,80.30
2023-02-26T01:35:50.494Z,80.01
2023-02-26T01:38:35.521Z,80.38
2023-02-26T01:41:26.575Z,80.74
2023-02-26T01:44:05.210Z,80.51
2023-02-26T01:47:05.156Z,80.76
2023-02-26T01:49:31.981Z,80.98
2023-02-26T01:52:00.339Z,81.24
2023-02-26T01:54:34.566Z,81.35
2023-02-26T01:57:15.337Z,81.22
2023-02-26T01:59:44.753Z,81.25
2023-02-26T02:02:12.606Z,80.79
2023-02-26T02:04:40.554Z,81.20
2023-02-26T02:07:07.605Z,81.28
2023-02-26T02:09:34.721Z,81.06
2023-02-26T02:12:21.325Z,81.02
2023-02-26T02:15:13.774Z,81.34
2023-02-26T02:17:58.252Z,81.56
2023-02-26T02:20:52.672Z,81.18
2023-02-26T02:23:43.671Z,81.48
2023-02-26T02:26:29.052Z,81.31
2023-02-26T02:29:20.442Z,81.49
2023-02-26T02:31:52.474Z,81.78
2023-02-26T02:34:30.270Z,81.29
2023-02-26T02:37:01.254Z,81.73
2023-02-26T02:39:56.373Z,81.40
2023-02-26T02:42:32.433Z,81.43
2023-02-26T02:45:02.120Z,81.41
2023-02-26T02:47:31.485Z,81.67
2023-02-26T02:50:15.170Z,81.31
2023-02-26T02:52:51.712Z,81.46
2023-02-26T02:55:30.821Z,81.44
2023-02-26T02:58:07.845Z,81.57
2023-02-26T03:00:36.691Z,81.48
2023-02-26T03:03:10.981Z,81.24
2023-02-26T03:05:37.465Z,81.41
2023-02-26T03:08:09.693Z,81.35
2023-02-26T03:10:36.461Z,81.32
2023-02-26T03:13:02.945Z,81.15
2023-02-26T03:15:35.811Z,81.25
2023-02-26T03:18:20.289Z,81.38
2023-02-26T03:20:56.259Z,81.47
2023-02-26T03:23:29.160Z,81.17
2023-02-26T03:26:06.682Z,80.95
2023-02-26T03:28:40.023Z,80.80
2023-02-26T03:31:21.054Z,81.06
2023-02-26T03:34:11.593Z,81.11
2023-02-26T03:36:42.019Z,80.54
2023-02-26T03:39:20.399Z,80.64
2023-02-26T03:41:52.158Z,80.88
2023-02-26T03:44:24.393Z,80.60
2023-02-26T03:46:55.547Z,80.56
2023-02-26T03:49:27.164Z,80.49
2023-02-26T03:51:53.928Z,80.43
2023-02-26T03:54:27.908Z,80.32
2023-02-26T03:56:54.406Z,80.14
2023-02-26T03:59:20.973Z,79.83
2023-02-26T04:01:54.842Z,79.93
2023-02-26T04:04:42.579Z,80.00
2023-02-26T04:07:10.296Z,79.70
2023-02-26T04:09:36.785Z,79.62
2023-02-26T04:12:03.889Z,79.70
2023-02-26T04:14:30.313Z,79.59
2023-02-26T04:16:56.753Z,79.29
2023-02-26T04:19:23.216Z,79.25
2023-02-26T04:21:49.658Z,78.99
2023-02-26T04:24:16.095Z,78.85
2023-02-26T04:26:42.494Z,78.39
2023-02-26T04:29:08.929Z,78.77
2023-02-26T04:31:35.483Z,78.22
2023-02-26T04:34:01.959Z,77.64
2023-02-26T04:36:28.419Z,77.57
2023-02-26T04:38:54.968Z,77.74
2023-02-26T04:41:21.665Z,77.52
2023-02-26T04:43:48.441Z,77.27
2023-02-26T04:46:14.942Z,77.29
2023-02-26T04:48:41.457Z,77.09
2023-02-26T04:51:07.887Z,77.30
2023-02-26T04:53:34.370Z,77.14
2023-02-26T04:56:01.058Z,76.90
2023-02-26T04:58:27.523Z,76.74
2023-02-26T05:00:54.849Z,76.75
2023-02-26T05:03:21.547Z,76.88
2023-02-26T05:05:49.588Z,76.50
2023-02-26T05:08:16.049Z,76.31
2023-02-26T05:10:42.507Z,76.06
2023-02-26T05:13:08.939Z,76.08
2023-02-26T05:15:35.375Z,75.63
2023-02-26T05:18:01.833Z,75.61
2023-02-26T05:20:28.265Z,75.59
2023-02-26T05:22:54.690Z,75.72
2023-02-26T05:25:21.167Z,75.32
2023-02-26T05:27:47.587Z,74.89
2023-02-26T05:30:15.540Z,74.48
2023-02-26T05:32:42.450Z,74.38
2023-02-26T05:35:10.356Z,74.17
2023-02-26T05:37:37.110Z,74.34
2023-02-26T05:40:05.111Z,74.14
2023-02-26T05:42:31.511Z,74.26
2023-02-26T05:44:57.928Z,74.48
2023-02-26T05:47:24.377Z,74.30
2023-02-26T05:49:50.801Z,74.38
2023-02-26T05:52:17.246Z,74.58
2023-02-26T05:54:43.692Z,74.21
2023-02-26T05:57:10.103Z,74.64
2023-02-26T05:59:38.620Z,74.40
2023-02-26T06:02:05.070Z,73.96
2023-02-26T06:04:31.464Z,74.03
2023-02-26T06:06:57.869Z,73.97
2023-02-26T06:09:24.286Z,73.97
2023-02-26T06:11:50.756Z,73.55
2023-02-26T06:14:17.171Z,73.15
2023-02-26T06:16:43.721Z,73.23
2023-02-26T06:19:10.153Z,72.90
2023-02-26T06:21:36.579Z,73.24
2023-02-26T06:24:03.001Z,72.68
2023-02-26T06:26:29.662Z,72.83
2023-02-26T06:28:56.358Z,72.86
2023-02-26T06:31:22.977Z,72.74
2023-02-26T06:33:49.456Z,72.52
2023-02-26T06:36:15.877Z,72.74
2023-02-26T06:38:42.336Z,72.42
2023-02-26T06:41:08.951Z,72.65
2023-02-26T06:43:35.368Z,72.73
2023-02-26T06:46:01.899Z,72.08
2023-02-26T06:48:28.393Z,72.59
2023-02-26T06:50:54.810Z,72.49
2023-02-26T06:53:21.221Z,72.27
2023-02-26T06:55:51.130Z,71.77
2023-02-26T06:58:18.150Z,71.62
2023-02-26T07:00:44.762Z,71.23
2023-02-26T07:03:16.196Z,71.36
2023-02-26T07:05:42.985Z,70.73
2023-02-26T07:08:10.077Z,70.55
2023-02-26T07:10:37.175Z,70.42
2023-02-26T07:13:03.724Z,70.08
2023-02-26T07:15:30.580Z,69.74
2023-02-26T07:17:57.269Z,69.56
2023-02-26T07:20:23.716Z,69.27
2023-02-26T07:22:50.132Z,69.10
2023-02-26T07:25:16.594Z,69.25
2023-02-26T07:27:43.960Z,68.46
2023-02-26T07:30:11.223Z,68.68
2023-02-26T07:32:37.879Z,68.50
2023-02-26T07:35:05.916Z,68.39
2023-02-26T07:37:32.456Z,68.62
2023-02-26T07:39:59.062Z,67.74
2023-02-26T07:42:25.501Z,67.61
2023-02-26T07:44:51.939Z,67.39
2023-02-26T07:47:18.421Z,67.10
2023-02-26T07:49:44.882Z,66.54
2023-02-26T07:52:11.320Z,66.11
2023-02-26T07:54:37.989Z,65.80
2023-02-26T07:57:04.874Z,65.74
2023-02-26T07:59:31.311Z,64.97
2023-02-26T08:01:57.765Z,65.29
2023-02-26T08:04:24.345Z,63.80
2023-02-26T08:06:50.998Z,63.23
2023-02-26T08:09:17.392Z,62.48
2023-02-26T08:11:43.865Z,62.69
2023-02-26T08:14:11.325Z,61.74
2023-02-26T08:16:37.778Z,62.63
2023-02-26T08:19:04.197Z,62.50
2023-02-26T08:21:30.741Z,62.20
2023-02-26T08:23:57.278Z,62.54
2023-02-26T08:26:24.204Z,62.39
2023-02-26T08:28:50.878Z,62.55
2023-02-26T08:31:17.786Z,62.15
2023-02-26T08:33:44.472Z,61.99
2023-02-26T08:36:11.388Z,62.08
2023-02-26T08:38:37.967Z,62.00
2023-02-26T08:41:04.533Z,61.50
2023-02-26T08:43:31.046Z,61.58
2023-02-26T08:45:58.059Z,60.29
2023-02-26T08:48:24.619Z,60.22
2023-02-26T08:50:51.061Z,60.49
2023-02-26T08:53:17.523Z,59.75
2023-02-26T08:55:48.260Z,59.86
2023-02-26T08:58:14.733Z,59.02
2023-02-26T09:00:41.265Z,59.23
2023-02-26T09:03:07.735Z,58.64
2023-02-26T09:05:34.191Z,58.84
2023-02-26T09:08:00.645Z,58.37
2023-02-26T09:10:27.116Z,58.27
2023-02-26T09:12:53.874Z,58.19
2023-02-26T09:15:20.482Z,57.80
2023-02-26T09:17:47.923Z,57.34
2023-02-26T09:20:15.316Z,57.41
2023-02-26T09:22:42.218Z,57.18
2023-02-26T09:25:10.139Z,57.53
2023-02-26T09:27:36.765Z,57.41
2023-02-26T09:30:04.619Z,57.03
2023-02-26T09:32:31.260Z,57.34
2023-02-26T09:34:58.116Z,56.73
2023-02-26T09:37:24.685Z,56.82
2023-02-26T09:39:53.298Z,56.01
2023-02-26T09:42:42.838Z,55.25
2023-02-26T09:45:20.841Z,54.74
2023-02-26T09:47:51.745Z,55.63
2023-02-26T09:50:22.147Z,57.14
2023-02-26T09:53:28.043Z,57.08
2023-02-26T09:55:57.127Z,54.64
2023-02-26T09:58:33.474Z,54.50
2023-02-26T10:01:16.262Z,54.82
2023-02-26T10:04:07.501Z,54.06
2023-02-26T10:07:00.155Z,54.31
2023-02-26T10:09:47.912Z,53.81
2023-02-26T10:12:23.190Z,54.46
2023-02-26T10:15:07.468Z,54.03
2023-02-26T10:17:40.884Z,53.54
2023-02-26T10:20:16.726Z,53.28
2023-02-26T10:22:56.522Z,53.01
2023-02-26T10:25:27.785Z,53.82
2023-02-26T10:28:20.369Z,53.27
2023-02-26T10:30:54.835Z,53.55
2023-02-26T10:33:39.626Z,53.30
2023-02-26T10:36:24.350Z,53.18
2023-02-26T10:38:54.961Z,52.61
2023-02-26T10:41:25.773Z,53.07
2023-02-26T10:44:01.741Z,53.41
2023-02-26T10:46:45.891Z,54.41
2023-02-26T10:49:33.957Z,51.94
2023-02-26T10:52:24.749Z,51.62
2023-02-26T10:55:17.919Z,50.41
2023-02-26T10:57:50.009Z,50.99
2023-02-26T11:00:20.459Z,52.16
2023-02-26T11:02:49.668Z,52.08
2023-02-26T11:05:25.366Z,52.12
2023-02-26T11:07:57.292Z,51.18
2023-02-26T11:10:25.802Z,50.83
2023-02-26T11:12:53.745Z,51.11
2023-02-26T11:15:22.703Z,50.80
2023-02-26T11:17:53.268Z,48.89
2023-02-26T11:20:38.626Z,48.77
2023-02-26T11:23:10.259Z,48.59
2023-02-26T11:25:37.342Z,48.54
2023-02-26T11:28:05.598Z,47.07
2023-02-26T11:30:36.550Z,48.05
2023-02-26T11:33:22.846Z,48.47
2023-02-26T11:35:49.796Z,48.34
2023-02-26T11:38:19.916Z,47.75
2023-02-26T11:40:49.080Z,47.28
2023-02-26T11:43:19.193Z,46.56
2023-02-26T11:45:48.558Z,46.82
2023-02-26T11:48:27.220Z,46.71
2023-02-26T11:50:58.013Z,46.78
2023-02-26T11:53:30.767Z,46.90
2023-02-26T11:56:08.557Z,47.64
2023-02-26T11:58:38.397Z,47.31
2023-02-26T12:01:07.781Z,47.25
2023-02-26T12:03:40.050Z,46.49
2023-02-26T12:06:08.181Z,45.59
2023-02-26T12:08:39.412Z,45.48
2023-02-26T12:11:24.767Z,46.02
2023-02-26T12:14:28.309Z,45.87
2023-02-26T12:17:09.774Z,45.29
2023-02-26T12:20:02.573Z,45.41
2023-02-26T12:22:54.721Z,45.03
2023-02-26T12:25:36.290Z,44.48
2023-02-26T12:28:30.974Z,44.58
2023-02-26T12:31:16.593Z,44.24
2023-02-26T12:34:08.718Z,42.89
2023-02-26T12:36:53.336Z,41.97
2023-02-26T12:39:49.020Z,42.26
2023-02-26T12:42:41.009Z,40.56
2023-02-26T12:45:16.654Z,40.86
2023-02-26T12:48:13.210Z,39.99
2023-02-26T12:51:21.636Z,39.06
2023-02-26T12:53:48.020Z,40.17
2023-02-26T12:56:58.008Z,41.23
2023-02-26T12:59:24.348Z,40.32
2023-02-26T13:02:05.843Z,38.53
2023-02-26T13:04:53.242Z,39.81
2023-02-26T13:07:39.777Z,39.93
2023-02-26T13:10:09.424Z,39.54
2023-02-26T13:12:35.741Z,38.69
2023-02-26T13:15:32.048Z,39.47
2023-02-26T13:18:31.687Z,39.01
2023-02-26T13:21:06.512Z,37.85
2023-02-26T13:23:50.055Z,36.86
2023-02-26T13:26:17.775Z,37.10
2023-02-26T13:28:53.015Z,37.07
2023-02-26T13:31:28.361Z,37.83
2023-02-26T13:33:56.522Z,36.95
2023-02-26T13:36:24.576Z,37.33
2023-02-26T13:39:04.973Z,38.03
2023-02-26T13:41:46.534Z,37.13
2023-02-26T13:44:36.120Z,36.90
2023-02-26T13:47:17.791Z,36.97
2023-02-26T13:50:02.480Z,36.57
2023-02-26T13:52:31.287Z,36.54
2023-02-26T13:54:59.431Z,36.36
2023-02-26T13:57:54.051Z,35.95
2023-02-26T14:00:36.364Z,36.28
2023-02-26T14:03:15.417Z,36.50
2023-02-26T14:05:41.723Z,36.68
2023-02-26T14:08:18.823Z,36.64
2023-02-26T14:10:47.533Z,35.73
2023-02-26T14:13:21.125Z,35.88
2023-02-26T14:16:26.861Z,36.48
2023-02-26T14:18:54.675Z,36.12
2023-02-26T14:21:27.345Z,36.20
2023-02-26T14:24:14.272Z,36.05
2023-02-26T14:26:45.469Z,35.87
2023-02-26T14:29:25.663Z,35.93
2023-02-26T14:32:06.094Z,36.55
2023-02-26T14:34:37.029Z,36.38
2023-02-26T14:37:07.130Z,36.36
2023-02-26T14:39:43.856Z,36.43
2023-02-26T14:42:13.467Z,36.12
2023-02-26T14:44:46.661Z,36.56
2023-02-26T14:47:13.187Z,36.90
2023-02-26T14:49:42.443Z,36.93
2023-02-26T14:52:27.489Z,37.30
2023-02-26T14:55:09.344Z,37.02
2023-02-26T14:57:44.833Z,37.19
2023-02-26T15:00:36.876Z,38.02
2023-02-26T15:03:19.164Z,38.54
2023-02-26T15:06:05.717Z,38.64
2023-02-26T15:08:44.412Z,38.59
2023-02-26T15:11:29.528Z,38.63
2023-02-26T15:14:34.514Z,38.32
2023-02-26T15:17:18.782Z,38.35
2023-02-26T15:20:11.525Z,39.35
2023-02-26T15:23:29.073Z,39.92
2023-02-26T15:25:57.195Z,40.28
2023-02-26T15:28:32.816Z,41.22
2023-02-26T15:31:01.176Z,40.71
2023-02-26T15:33:29.339Z,40.86
2023-02-26T15:43:01.965Z,41.38
2023-02-26T15:45:55.609Z,41.74
2023-02-26T15:48:46.808Z,41.95
2023-02-26T15:51:33.338Z,42.21
2023-02-26T15:54:03.259Z,42.51
2023-02-26T15:56:32.528Z,42.49
2023-02-26T15:59:02.048Z,42.50
2023-02-26T16:01:34.126Z,42.96
2023-02-26T16:04:03.397Z,43.04
2023-02-26T16:06:36.049Z,43.46
2023-02-26T16:09:05.221Z,43.04
2023-02-26T16:11:35.189Z,44.46
2023-02-26T16:14:02.951Z,44.42
2023-02-26T16:16:46.628Z,44.55
2023-02-26T16:19:15.855Z,44.83
2023-02-26T16:21:43.397Z,45.72
2023-02-26T16:24:16.367Z,45.78
2023-02-26T16:26:46.904Z,46.21
2023-02-26T16:29:19.427Z,45.82
2023-02-26T16:31:49.118Z,46.09
2023-02-26T16:34:37.469Z,46.27
2023-02-26T16:37:31.824Z,46.79
2023-02-26T16:40:11.213Z,46.76
2023-02-26T16:42:54.631Z,47.04
2023-02-26T16:45:36.637Z,47.56
2023-02-26T16:48:13.597Z,47.18
2023-02-26T16:50:40.498Z,47.50
2023-02-26T16:53:16.215Z,48.00
2023-02-26T16:55:45.194Z,48.11
2023-02-26T16:58:14.674Z,47.41
2023-02-26T17:00:44.366Z,48.23
2023-02-26T17:03:13.848Z,48.75
2023-02-26T17:05:55.869Z,49.02
2023-02-26T17:08:27.336Z,48.92
2023-02-26T17:11:00.395Z,48.90
2023-02-26T17:13:29.625Z,49.58
2023-02-26T17:15:59.776Z,49.62
2023-02-26T17:18:26.353Z,49.67
2023-02-26T17:20:53.144Z,49.72
2023-02-26T17:23:22.719Z,50.72
2023-02-26T17:25:53.460Z,50.53
2023-02-26T17:28:26.535Z,50.87
2023-02-26T17:30:53.804Z,51.46
2023-02-26T17:33:21.034Z,51.55
2023-02-26T17:35:48.303Z,51.77
2023-02-26T17:38:16.052Z,51.81
2023-02-26T17:40:45.249Z,52.00
2023-02-26T17:43:11.805Z,52.23
2023-02-26T17:45:40.311Z,52.13
2023-02-26T17:48:07.542Z,52.67
2023-02-26T17:50:40.918Z,52.02
2023-02-26T17:53:08.268Z,52.73
2023-02-26T17:55:35.880Z,52.96
2023-02-26T17:58:02.464Z,52.91
2023-02-26T18:00:29.030Z,53.24
2023-02-26T18:02:55.555Z,53.29
2023-02-26T18:05:22.211Z,53.53
2023-02-26T18:07:49.447Z,53.37
2023-02-26T18:10:25.124Z,53.84
2023-02-26T18:12:51.996Z,53.85
2023-02-26T18:15:18.655Z,54.15
2023-02-26T18:17:45.240Z,54.55
2023-02-26T18:20:18.232Z,54.31
2023-02-26T18:22:47.946Z,54.29
2023-02-26T18:25:15.501Z,54.50
2023-02-26T18:27:42.942Z,54.54
2023-02-26T18:30:40.621Z,55.64
2023-02-26T18:33:07.254Z,54.95
2023-02-26T18:35:34.377Z,55.66
2023-02-26T18:38:01.936Z,55.64
2023-02-26T18:40:28.659Z,55.88
2023-02-26T18:42:55.373Z,55.53
2023-02-26T18:45:22.096Z,55.71
2023-02-26T18:47:48.759Z,56.04
2023-02-26T18:50:16.910Z,56.43
2023-02-26T18:52:44.232Z,56.20
2023-02-26T18:55:12.251Z,56.73
2023-02-26T18:57:40.438Z,57.00
2023-02-26T19:00:09.726Z,57.16
2023-02-26T19:02:36.327Z,57.35
2023-02-26T19:05:03.002Z,57.64
2023-02-26T19:07:29.754Z,58.78
2023-02-26T19:09:56.783Z,58.44
2023-02-26T19:12:24.522Z,58.38
2023-02-26T19:14:51.106Z,58.69
2023-02-26T19:17:18.476Z,58.91
2023-02-26T19:19:45.053Z,59.08
2023-02-26T19:22:14.158Z,59.19
2023-02-26T19:24:41.814Z,59.32
2023-02-26T19:27:08.903Z,59.98
2023-02-26T19:29:36.901Z,59.49
2023-02-26T19:32:06.984Z,59.92
2023-02-26T19:34:34.103Z,60.03
2023-02-26T19:37:00.871Z,60.10
2023-02-26T19:39:27.952Z,60.19
2023-02-26T19:41:54.933Z,60.30
2023-02-26T19:44:22.460Z,60.78
2023-02-26T19:46:50.766Z,60.43
2023-02-26T19:49:17.738Z,60.72
2023-02-26T19:51:44.702Z,61.25
2023-02-26T19:54:12.973Z,61.17
2023-02-26T19:56:40.181Z,61.45
2023-02-26T19:59:06.898Z,61.82
2023-02-26T20:01:33.606Z,61.66
2023-02-26T20:04:01.071Z,62.18
2023-02-26T20:06:27.814Z,62.04
2023-02-26T20:08:54.586Z,62.45
2023-02-26T20:11:21.583Z,63.04
2023-02-26T20:13:48.270Z,63.32
2023-02-26T20:16:15.920Z,63.48
2023-02-26T20:18:42.883Z,63.66
2023-02-26T20:21:10.195Z,63.31
2023-02-26T20:23:38.113Z,63.93
2023-02-26T20:26:12.292Z,63.44
2023-02-26T20:28:39.035Z,64.12
2023-02-26T20:31:06.221Z,64.00
2023-02-26T20:33:33.853Z,64.60
2023-02-26T20:36:00.684Z,64.73
2023-02-26T20:38:28.324Z,65.31
2023-02-26T20:40:55.282Z,65.08
2023-02-26T20:43:21.794Z,65.75
2023-02-26T20:45:49.420Z,65.33
2023-02-26T20:48:15.943Z,65.60
2023-02-26T20:50:42.737Z,65.84
2023-02-26T20:53:09.912Z,66.24
2023-02-26T20:55:36.431Z,66.15
2023-02-26T20:58:03.171Z,66.72
2023-02-26T21:00:29.800Z,66.65
2023-02-26T21:02:56.394Z,66.81
2023-02-26T21:05:22.956Z,66.76
2023-02-26T21:07:50.693Z,67.11
2023-02-26T21:10:18.080Z,66.92
2023-02-26T21:12:44.776Z,67.15
2023-02-26T21:15:12.307Z,67.20
2023-02-26T21:17:40.173Z,66.90
2023-02-26T21:20:08.935Z,67.09
2023-02-26T21:22:36.536Z,67.27
2023-02-26T21:25:06.473Z,67.18
2023-02-26T21:27:33.875Z,67.27
2023-02-26T21:30:00.387Z,67.35
2023-02-26T21:32:26.986Z,67.81
2023-02-26T21:34:53.566Z,67.30
2023-02-26T21:37:20.078Z,67.67
2023-02-26T21:39:48.200Z,67.50
2023-02-26T21:42:14.883Z,67.62
2023-02-26T21:44:41.399Z,67.79
2023-02-26T21:47:08.012Z,67.34
2023-02-26T21:49:34.568Z,67.34
2023-02-26T21:52:05.361Z,67.55
2023-02-26T21:54:31.812Z,67.42
2023-02-26T21:56:59.210Z,67.13
2023-02-26T21:59:26.044Z,67.14
2023-02-26T22:01:53.219Z,66.91
2023-02-26T22:04:19.867Z,66.89
2023-02-26T22:06:46.312Z,66.64
2023-02-26T22:09:12.956Z,66.68
2023-02-26T22:11:39.682Z,66.93
2023-02-26T22:14:06.407Z,66.55
2023-02-26T22:16:32.970Z,66.83
2023-02-26T22:18:59.420Z,66.51
2023-02-26T22:21:26.309Z,66.65
2023-02-26T22:23:52.933Z,66.57
2023-02-26T22:26:19.406Z,66.86
2023-02-26T22:28:45.933Z,66.77
2023-02-26T22:31:12.674Z,67.05
2023-02-26T22:33:39.210Z,67.02
2023-02-26T22:36:05.943Z,67.36
2023-02-26T22:38:32.379Z,67.39
2023-02-26T22:40:58.801Z,67.73
2023-02-26T22:43:25.221Z,67.82
2023-02-26T22:45:51.687Z,67.85
2023-02-26T22:48:18.144Z,67.93
2023-02-26T22:50:44.583Z,68.58
2023-02-26T22:53:11.011Z,68.77
2023-02-26T22:55:37.414Z,68.43
2023-02-26T22:58:04.693Z,68.69
2023-02-26T23:00:31.121Z,68.64
2023-02-26T23:02:57.624Z,68.95
2023-02-26T23:05:24.097Z,68.74
2023-02-26T23:07:50.591Z,68.51
2023-02-26T23:10:18.782Z,68.80
2023-02-26T23:12:46.598Z,68.48
2023-02-26T23:15:13.365Z,68.46
2023-02-26T23:17:39.960Z,68.49
2023-02-26T23:20:09.948Z,68.30
2023-02-26T23:22:37.128Z,68.18
2023-02-26T23:25:03.860Z,68.12
2023-02-26T23:27:30.329Z,68.32
2023-02-26T23:29:56.748Z,68.35
2023-02-26T23:32:23.162Z,67.92
2023-02-26T23:34:49.615Z,68.16
2023-02-26T23:37:16.020Z,67.88
2023-02-26T23:39:42.556Z,67.81
2023-02-26T23:42:09.003Z,67.60
2023-02-26T23:44:35.426Z,67.80
2023-02-26T23:47:01.836Z,67.68
2023-02-26T23:49:28.256Z,68.03
2023-02-26T23:51:54.716Z,68.37
2023-02-26T23:54:21.143Z,67.80
2023-02-26T23:56:47.625Z,68.09
2023-02-26T23:59:14.056Z,68.30
